Time;durP1;ratioP1;P1;durP2;ratioP2;P2;SDS_P1;SDS_P2;PMS_P1;PMS_P2;Temp;Humidity;BMP_temperature;BMP_pressure;BME280_temperature;BME280_humidity;BME280_pressure;Samples;Min_cycle;Max_cycle;Signal;HPM_P1;HPM_P2
2022/07/31 09:00:18;;;;;;;;;14.33;11.33;;;;;23.87;52.83;101665.03;5033043;28;45540;-71
2022/07/31 09:03:34;;;;;;;;;13.33;11.33;;;;;24.06;52.96;101674.09;5042124;27;45584;-69
2022/07/31 09:06:00;;;;;;;;;9.00;7.00;;;;;24.29;52.77;101671.03;5030477;28;46785;-73
2022/07/31 09:08:25;;;;;;;;;13.00;9.00;;;;;24.52;51.91;101671.44;5031583;28;46983;-74
2022/07/31 09:11:02;;;;;;;;;9.33;8.33;;;;;24.80;51.87;101668.69;5031408;27;45746;-74
2022/07/31 09:13:27;;;;;;;;;7.00;7.00;;;;;25.07;51.57;101674.22;5032155;28;45534;-74
2022/07/31 09:15:56;;;;;;;;;7.67;7.67;;;;;25.35;51.07;101674.97;5050695;28;45672;-75
2022/07/31 09:18:23;;;;;;;;;10.00;6.00;;;;;25.61;50.37;101668.72;5036875;28;46961;-73
2022/07/31 09:20:58;;;;;;;;;10.00;9.33;;;;;25.89;50.25;101670.38;5032626;28;45570;-75
2022/07/31 09:23:25;;;;;;;;;11.67;10.00;;;;;26.10;49.82;101666.41;5030130;27;47202;-78
2022/07/31 09:26:11;;;;;;;;;9.67;9.67;;;;;26.40;49.25;101672.34;5057041;28;45548;-73
2022/07/31 09:28:42;;;;;;;;;10.33;7.33;;;;;26.54;49.04;101666.25;5033330;27;45490;-76
2022/07/31 09:31:09;;;;;;;;;9.33;9.33;;;;;26.82;48.09;101676.00;5031389;28;46895;-77
2022/07/31 09:33:37;;;;;;;;;8.00;8.00;;;;;26.95;47.80;101662.75;5033077;27;46617;-78
2022/07/31 09:36:03;;;;;;;;;8.67;7.67;;;;;27.18;47.82;101663.94;5032020;28;45715;-77
2022/07/31 09:38:31;;;;;;;;;8.00;8.00;;;;;27.28;47.03;101666.47;5036319;28;45478;-76
2022/07/31 09:40:56;;;;;;;;;7.00;7.00;;;;;27.46;46.70;101669.88;5031727;28;45575;-79
2022/07/31 09:43:27;;;;;;;;;9.00;7.00;;;;;27.60;46.84;101667.50;5041819;28;46134;-75
2022/07/31 09:46:01;;;;;;;;;11.67;8.67;;;;;27.73;46.22;101677.84;5043958;28;45877;-76
2022/07/31 09:48:27;;;;;;;;;7.33;6.67;;;;;27.83;45.96;101664.84;5030934;28;46879;-75
2022/07/31 09:50:54;;;;;;;;;6.67;6.67;;;;;27.97;45.84;101665.16;5030651;28;46223;-76
2022/07/31 09:53:19;;;;;;;;;8.00;8.00;;;;;28.00;45.93;101652.00;5030779;28;46230;-75
2022/07/31 09:55:51;;;;;;;;;9.67;7.67;;;;;28.12;45.71;101659.81;5039341;28;45876;-75
2022/07/31 09:58:16;;;;;;;;;9.33;8.33;;;;;28.21;45.32;101677.00;5062523;28;45551;-74
2022/07/31 10:00:42;;;;;;;;;6.33;6.33;;;;;28.27;45.07;101665.38;5041425;28;46355;-75
2022/07/31 10:03:08;;;;;;;;;6.67;5.67;;;;;28.35;44.57;101675.41;5048280;27;45586;-74
2022/07/31 10:05:34;;;;;;;;;8.00;7.00;;;;;28.35;44.69;101665.34;5050455;27;46113;-76
2022/07/31 10:08:00;;;;;;;;;10.33;8.33;;;;;28.44;44.95;101659.84;5055746;27;45872;-77
2022/07/31 10:10:28;;;;;;;;;8.00;6.67;;;;;28.51;44.01;101671.75;5052071;27;45812;-74
2022/07/31 10:12:58;;;;;;;;;8.67;8.00;;;;;28.57;44.01;101671.00;5033806;27;46538;-76
2022/07/31 10:15:25;;;;;;;;;9.00;9.00;;;;;28.60;44.05;101650.72;5044901;28;46392;-75
2022/07/31 10:17:52;;;;;;;;;8.00;8.00;;;;;28.67;43.87;101658.00;5038476;28;46358;-74
2022/07/31 10:20:21;;;;;;;;;8.33;7.67;;;;;28.70;43.30;101664.09;5037068;28;45669;-75
2022/07/31 10:22:58;;;;;;;;;8.33;8.33;;;;;28.76;43.87;101655.19;5037397;28;47111;-75
2022/07/31 10:25:26;;;;;;;;;7.33;7.33;;;;;28.82;43.81;101659.06;5058277;28;45491;-74
2022/07/31 10:27:53;;;;;;;;;5.00;5.00;;;;;28.81;43.72;101652.75;5037225;27;45908;-77
2022/07/31 10:30:19;;;;;;;;;10.67;8.33;;;;;28.87;43.22;101662.09;5037272;28;45627;-75
2022/07/31 10:32:44;;;;;;;;;10.00;9.00;;;;;28.90;42.78;101653.59;5037413;27;46432;-74
2022/07/31 10:35:10;;;;;;;;;10.00;7.33;;;;;28.90;43.25;101648.13;5035491;27;46282;-75
2022/07/31 10:37:50;;;;;;;;;6.33;5.33;;;;;28.92;43.13;101646.91;5037766;28;45814;-76
2022/07/31 10:40:34;;;;;;;;;7.67;6.33;;;;;29.01;43.02;101652.31;5036918;28;45905;-75
2022/07/31 10:43:08;;;;;;;;;6.33;6.00;;;;;29.04;43.20;101649.19;5035418;28;46356;-74
2022/07/31 10:45:45;;;;;;;;;7.00;7.00;;;;;29.06;43.34;101647.13;5035539;27;45763;-74
2022/07/31 10:48:10;;;;;;;;;8.00;6.33;;;;;29.03;42.54;101631.09;5043717;28;45630;-74
2022/07/31 10:50:36;;;;;;;;;9.00;7.33;;;;;29.06;42.82;101637.03;5048057;28;45717;-74
2022/07/31 10:53:15;;;;;;;;;8.33;7.00;;;;;28.99;42.76;101627.88;5037179;28;45583;-74
2022/07/31 10:55:42;;;;;;;;;8.00;6.67;;;;;29.12;43.33;101642.78;5035030;28;46832;-74
2022/07/31 10:58:12;;;;;;;;;7.00;6.33;;;;;29.13;43.33;101639.88;5023106;28;46199;-73
2022/07/31 11:00:39;;;;;;;;;13.67;11.00;;;;;29.15;42.36;101642.44;5036021;28;46202;-71
2022/07/31 11:03:12;;;;;;;;;9.00;7.00;;;;;29.16;42.87;101638.66;5039217;27;46411;-71
2022/07/31 11:05:37;;;;;;;;;10.00;7.00;;;;;29.14;42.63;101632.53;5037549;27;46858;-75
2022/07/31 11:08:06;;;;;;;;;8.00;7.00;;;;;29.20;42.67;101631.78;5036763;28;45607;-77
2022/07/31 11:10:32;;;;;;;;;11.00;8.67;;;;;29.21;42.55;101630.75;5035201;28;46488;-76
2022/07/31 11:13:06;;;;;;;;;10.33;7.33;;;;;29.25;42.41;101632.06;5036929;28;47294;-77
2022/07/31 11:15:32;;;;;;;;;14.67;12.00;;;;;29.22;42.72;101618.78;5045621;28;46815;-74
2022/07/31 19:03:00;;;;;;;;;6.00;6.00;;;;;25.13;53.09;101437.28;5079919;27;45402;-73
2022/07/31 19:05:26;;;;;;;;;7.67;6.33;;;;;25.23;53.00;101431.72;5062254;28;45538;-75
2022/07/31 19:07:51;;;;;;;;;6.33;5.00;;;;;25.43;52.59;101429.59;5065653;28;45437;-75
2022/07/31 19:10:18;;;;;;;;;5.33;4.00;;;;;25.63;52.32;101438.34;5066612;28;45423;-75
2022/07/31 19:12:43;;;;;;;;;4.00;4.00;;;;;25.88;52.09;101445.69;5068468;28;46240;-74
2022/07/31 19:15:09;;;;;;;;;10.33;6.67;;;;;26.10;51.85;101427.00;5065552;28;45504;-75
2022/07/31 19:17:34;;;;;;;;;8.00;6.00;;;;;26.35;51.22;101437.94;5063534;28;45459;-74
2022/07/31 19:19:59;;;;;;;;;8.67;6.33;;;;;26.58;50.41;101430.75;5066911;28;45470;-75
2022/07/31 19:22:25;;;;;;;;;8.67;6.67;;;;;26.80;50.38;101444.66;5059126;28;45486;-75
2022/07/31 19:24:51;;;;;;;;;11.00;8.00;;;;;27.06;50.29;101437.31;5061917;28;45551;-75
2022/07/31 19:27:18;;;;;;;;;8.00;7.00;;;;;27.13;49.25;101416.50;5064187;27;45556;-75
2022/07/31 19:29:43;;;;;;;;;5.00;4.33;;;;;27.39;49.57;101439.03;5077770;27;45572;-75
2022/07/31 19:32:10;;;;;;;;;7.33;4.33;;;;;27.47;49.56;101431.66;5059382;28;46463;-76
2022/07/31 19:34:35;;;;;;;;;11.33;7.67;;;;;27.59;48.94;101439.44;5069930;28;45513;-75
2022/07/31 19:37:00;;;;;;;;;9.00;6.67;;;;;27.70;48.68;101449.13;5059601;28;45468;-75
2022/07/31 19:39:26;;;;;;;;;6.00;6.00;;;;;27.76;48.48;101451.13;5059339;28;45480;-75
2022/07/31 19:41:51;;;;;;;;;7.67;6.00;;;;;27.85;48.85;101463.69;5060604;28;48169;-73
2022/07/31 19:44:16;;;;;;;;;7.00;5.00;;;;;27.93;48.58;101462.78;5067840;28;45454;-75
2022/07/31 19:46:42;;;;;;;;;7.00;4.00;;;;;27.98;48.72;101462.22;5062970;28;46718;-76
2022/07/31 19:49:07;;;;;;;;;8.00;8.00;;;;;28.06;47.86;101475.81;5066972;28;45434;-74
2022/07/31 19:51:32;;;;;;;;;5.00;3.33;;;;;28.11;48.21;101487.03;5059786;28;46100;-74
2022/07/31 19:53:58;;;;;;;;;8.00;5.33;;;;;28.13;47.95;101476.78;5062246;28;45396;-77
2022/07/31 19:56:23;;;;;;;;;4.33;4.33;;;;;28.21;48.03;101484.06;5063514;27;45576;-74
2022/07/31 19:58:49;;;;;;;;;5.00;5.00;;;;;28.26;47.74;101492.59;5064901;28;46014;-74
2022/07/31 20:01:15;;;;;;;;;7.00;5.00;;;;;28.27;47.24;101494.28;5074304;27;45423;-75
2022/07/31 20:03:40;;;;;;;;;10.67;4.67;;;;;28.31;47.07;101489.31;5084044;27;45731;-75
2022/07/31 20:06:06;;;;;;;;;7.67;5.67;;;;;28.36;47.46;101499.69;5086132;27;45360;-75
2022/07/31 20:08:32;;;;;;;;;4.00;4.00;;;;;28.39;46.97;101507.50;5087269;27;45741;-74
2022/07/31 20:10:59;;;;;;;;;4.33;4.33;;;;;28.41;46.74;101509.00;5083100;27;46520;-73
2022/07/31 20:13:26;;;;;;;;;5.67;4.00;;;;;28.44;46.83;101513.25;5095810;27;45499;-75
2022/07/31 20:15:52;;;;;;;;;6.33;6.00;;;;;28.50;47.04;101515.25;5072367;28;45440;-75
2022/07/31 20:18:22;;;;;;;;;7.00;6.00;;;;;28.52;46.70;101521.38;5064401;28;46391;-75
2022/07/31 20:20:47;;;;;;;;;5.67;4.00;;;;;28.56;46.54;101519.13;5071656;28;46339;-75
2022/07/31 20:23:12;;;;;;;;;4.67;3.67;;;;;28.54;46.66;101518.47;5070337;28;45504;-76
2022/07/31 20:25:38;;;;;;;;;5.00;3.33;;;;;28.60;46.77;101523.19;5072870;28;45411;-75
2022/07/31 20:28:04;;;;;;;;;14.33;11.00;;;;;28.64;46.73;101527.25;5074767;27;45462;-74
2022/07/31 20:30:30;;;;;;;;;11.67;9.00;;;;;28.66;46.77;101527.91;5062456;28;46117;-77
2022/07/31 20:32:56;;;;;;;;;8.33;7.00;;;;;28.71;45.82;101531.97;5071988;27;45991;-76
2022/07/31 20:35:23;;;;;;;;;8.00;7.00;;;;;28.75;46.53;101536.03;5072982;28;45522;-77
2022/07/31 20:37:48;;;;;;;;;6.00;5.33;;;;;28.77;46.29;101534.81;5073467;28;45432;-74
2022/07/31 20:40:14;;;;;;;;;7.67;6.00;;;;;28.79;45.92;101546.41;5069348;28;46120;-75
2022/07/31 20:42:39;;;;;;;;;8.33;7.00;;;;;28.78;46.40;101541.13;5072367;27;45281;-75
2022/07/31 20:45:05;;;;;;;;;6.33;5.67;;;;;28.84;46.13;101545.84;5067548;28;45397;-76
2022/07/31 20:47:30;;;;;;;;;5.00;5.00;;;;;28.86;45.60;101546.53;5069596;28;45614;-75
2022/07/31 20:49:56;;;;;;;;;7.00;5.33;;;;;28.90;46.21;101555.22;5074237;28;46015;-74
2022/07/31 20:52:21;;;;;;;;;8.00;6.00;;;;;28.90;45.71;101556.06;5076218;28;45458;-77
2022/07/31 20:54:46;;;;;;;;;11.00;7.00;;;;;28.92;45.61;101545.81;5074327;28;45459;-75
2022/07/31 20:57:12;;;;;;;;;4.67;3.33;;;;;28.93;45.69;101550.22;5074107;28;45885;-75
2022/07/31 20:59:37;;;;;;;;;7.33;4.33;;;;;28.93;45.76;101542.03;5074330;28;45433;-75
2022/07/31 21:02:02;;;;;;;;;4.33;3.67;;;;;28.94;45.64;101545.63;5071878;27;45455;-75
2022/07/31 21:04:28;;;;;;;;;7.00;5.33;;;;;29.02;45.30;101552.88;5056862;28;46766;-74
2022/07/31 21:06:53;;;;;;;;;4.00;4.00;;;;;29.03;45.37;101560.91;5073172;28;45478;-75
2022/07/31 21:09:18;;;;;;;;;3.67;3.67;;;;;29.06;45.77;101565.16;5074599;28;46842;-75
2022/07/31 21:11:44;;;;;;;;;4.00;4.00;;;;;29.05;45.15;101556.09;5074773;28;45488;-74
2022/07/31 21:14:09;;;;;;;;;5.00;3.00;;;;;29.09;45.26;101566.66;5075024;28;45762;-76
2022/07/31 21:16:34;;;;;;;;;5.00;4.00;;;;;29.09;45.47;101572.94;5074530;28;49369;-74
2022/07/31 21:18:59;;;;;;;;;4.67;4.67;;;;;29.10;45.01;101569.19;5076114;28;46159;-74
2022/07/31 21:21:25;;;;;;;;;3.00;3.00;;;;;29.11;45.32;101565.44;5070548;27;45529;-75
2022/07/31 21:23:50;;;;;;;;;3.33;3.33;;;;;29.11;44.84;101559.09;5072608;28;45480;-76
2022/07/31 21:26:16;;;;;;;;;6.00;4.00;;;;;29.09;45.35;101570.22;5073620;28;45304;-75
2022/07/31 21:28:42;;;;;;;;;6.00;3.00;;;;;29.14;45.47;101575.13;5073676;28;46139;-75
2022/07/31 21:31:08;;;;;;;;;4.00;3.00;;;;;29.10;45.05;101568.34;5074839;28;45429;-75
2022/07/31 21:33:34;;;;;;;;;6.33;3.33;;;;;29.14;45.03;101578.72;5074224;28;45272;-76
2022/07/31 21:35:59;;;;;;;;;5.00;3.00;;;;;29.16;45.36;101567.59;5065683;28;45511;-74
2022/07/31 21:38:24;;;;;;;;;5.67;4.00;;;;;29.17;44.83;101580.22;5073100;27;45421;-74
2022/07/31 21:40:52;;;;;;;;;6.33;4.00;;;;;29.16;45.44;101571.19;5073623;27;45594;-74
2022/07/31 21:43:18;;;;;;;;;3.00;3.00;;;;;29.15;44.87;101566.75;5075263;28;45557;-76
2022/07/31 21:45:43;;;;;;;;;6.67;3.67;;;;;29.19;44.74;101559.84;5073104;28;45419;-74
2022/07/31 21:48:11;;;;;;;;;4.33;3.00;;;;;29.22;44.77;101572.31;5055645;28;46405;-76
2022/07/31 21:50:40;;;;;;;;;5.00;5.00;;;;;29.19;44.87;101562.59;5074248;28;45493;-75
2022/07/31 21:53:07;;;;;;;;;6.33;5.00;;;;;29.18;45.23;101563.63;5073981;28;45341;-75
2022/07/31 21:55:33;;;;;;;;;8.00;6.00;;;;;29.21;44.83;101564.31;5054759;28;45751;-74
2022/07/31 21:57:58;;;;;;;;;5.67;4.00;;;;;29.22;45.04;101566.00;5075156;28;46203;-73
2022/07/31 22:00:23;;;;;;;;;5.00;5.00;;;;;29.10;44.33;101546.47;5067646;28;45391;-78
